Página principal
Imagens de satélite Previsões 15 diasClimaMeteorologia maritima Ciclones Descargas eléctricas AeroportosFAQ Notícias Sobre
Tempo : Europa África América do Norte América do Sul Ásia Austrália-Oceania Outros
Línguas Contacto

Cuiabá, Mato Grosso, Brasil

latitude: 15-39S, longitude: 056-06W, altura: 187 m


METAR: SBCY 201100Z 34009KT 9999 FEW020 BKN100 25/23 Q1010
TAF: SBCY 200400Z 2006/2106 05003KT 9999 FEW020 TN23/2007Z TX32/2017Z BECMG PARTE 1/2

Hora: 08:29 (11:29 UTC)

Observação actual do tempo

O boletim foi feito há 29 minutos, às 11:00 UTC
Vento 9 kt de nor-noroeste
Temperatura 25°C
Humidade 89%
Pressão 1010 hPa
Visibilidade 10 km ou mais
Poucas nuvensa uma altura de 2000 ft
Nuvens fragmentadasa uma altura de 10000 ft

Mudar unidades

Previsão

O boletim foi feito há 7 horas e 29 minutos, às 04:00 UTC
Previsão válida de 20 às 06 UTC a 21 às 06 UTC
Vento 3 kt de nordeste
Visibilidade 10 km ou mais
Poucas nuvensa uma altura de 2000 ft
Tornando-se
entre PA e RT UTC
As informações contidas neste sítio estão sujeitas a uma declaração de exoneração de responsabilidade
Tempo : Europa África América do Norte América do Sul Ásia Austrália-Oceania Outros
Imagens de satélite Previsões 15 diasClimaMeteorologia maritima Ciclones Descargas eléctricas AeroportosFAQ Línguas Contacto Notícias Sobre